createdAt,value
2023-05-22T00:01:38.013Z,5.18
2023-05-22T00:07:06.754Z,5.40
2023-05-22T00:09:54.677Z,6.10
2023-05-22T00:12:35.242Z,6.20
2023-05-22T00:15:21.586Z,5.88
2023-05-22T00:18:03.811Z,5.88
2023-05-22T00:20:42.662Z,5.53
2023-05-22T00:23:28.942Z,6.20
2023-05-22T00:26:19.341Z,7.22
2023-05-22T00:29:05.966Z,7.80
2023-05-22T00:32:09.650Z,8.13
2023-05-22T00:34:59.276Z,7.47
2023-05-22T00:37:50.398Z,8.73
2023-05-22T00:40:44.831Z,7.50
2023-05-22T00:43:22.149Z,6.95
2023-05-22T00:46:08.299Z,7.45
2023-05-22T00:48:50.145Z,7.80
2023-05-22T00:51:43.375Z,7.43
2023-05-22T00:54:34.805Z,7.32
2023-05-22T00:57:22.357Z,6.80
2023-05-22T01:00:00.033Z,7.75
2023-05-22T01:02:46.329Z,7.18
2023-05-22T01:05:36.580Z,7.82
2023-05-22T01:08:22.542Z,10.52
2023-05-22T01:11:10.678Z,10.60
2023-05-22T01:14:11.791Z,11.93
2023-05-22T01:17:11.945Z,10.20
2023-05-22T01:20:14.485Z,8.82
2023-05-22T01:23:22.572Z,8.40
2023-05-22T01:26:24.974Z,9.30
2023-05-22T01:29:33.644Z,10.05
2023-05-22T01:32:22.040Z,8.27
2023-05-22T01:35:12.548Z,11.82
2023-05-22T01:37:53.728Z,11.07
2023-05-22T01:40:46.833Z,13.40
2023-05-22T01:43:36.304Z,14.30
2023-05-22T01:46:20.830Z,15.43
2023-05-22T01:49:12.200Z,14.75
2023-05-22T01:52:19.054Z,15.50
2023-05-22T01:55:06.152Z,16.17
2023-05-22T01:58:14.062Z,13.18
2023-05-22T02:01:05.274Z,15.70
2023-05-22T02:03:56.727Z,15.20
2023-05-22T02:06:40.930Z,14.95
2023-05-22T02:09:17.494Z,13.80
2023-05-22T02:11:58.358Z,12.95
2023-05-22T02:14:46.234Z,12.13
2023-05-22T02:17:48.142Z,15.52
2023-05-22T02:20:55.802Z,15.35
2023-05-22T02:23:43.703Z,16.83
2023-05-22T02:26:24.332Z,16.88
2023-05-22T02:29:13.064Z,15.00
2023-05-22T02:32:02.765Z,14.38
2023-05-22T02:34:38.825Z,13.85
2023-05-22T02:37:20.255Z,13.55
2023-05-22T02:40:04.967Z,15.63
2023-05-22T02:42:50.831Z,18.95
2023-05-22T02:45:34.760Z,17.63
2023-05-22T02:48:10.756Z,16.63
2023-05-22T02:50:54.357Z,16.13
2023-05-22T02:53:43.476Z,15.30
2023-05-22T02:56:25.673Z,13.32
2023-05-22T02:59:16.852Z,14.43
2023-05-22T03:02:04.282Z,13.95
2023-05-22T03:04:46.535Z,14.38
2023-05-22T03:07:31.233Z,16.90
2023-05-22T03:10:37.574Z,15.95
2023-05-22T03:14:00.255Z,15.75
2023-05-22T03:16:41.256Z,14.73
2023-05-22T03:19:31.821Z,14.88
2023-05-22T03:22:35.892Z,14.20
2023-05-22T03:25:18.274Z,15.45
2023-05-22T03:28:05.277Z,17.13
2023-05-22T03:30:52.933Z,15.23
2023-05-22T03:33:50.045Z,15.60
2023-05-22T03:36:48.147Z,16.52
2023-05-22T03:39:27.348Z,15.60
2023-05-22T03:42:25.805Z,15.90
2023-05-22T03:45:27.528Z,18.80
2023-05-22T03:48:39.892Z,18.15
2023-05-22T03:51:32.267Z,16.25
2023-05-22T03:54:40.397Z,16.90
2023-05-22T03:57:39.027Z,17.20
2023-05-22T04:00:19.735Z,18.35
2023-05-22T04:03:04.367Z,16.02
2023-05-22T04:05:42.542Z,17.13
2023-05-22T04:08:32.247Z,17.73
2023-05-22T04:11:20.030Z,18.25
2023-05-22T04:17:10.564Z,16.88
2023-05-22T04:19:54.687Z,17.38
2023-05-22T04:22:40.263Z,18.73
2023-05-22T04:25:28.616Z,18.80
2023-05-22T04:28:22.633Z,18.00
2023-05-22T04:31:33.252Z,20.38
2023-05-22T04:34:19.197Z,17.27
2023-05-22T04:37:28.952Z,16.38
2023-05-22T04:43:23.704Z,17.33
2023-05-22T04:46:16.642Z,17.00
2023-05-22T04:49:03.663Z,16.73
2023-05-22T04:52:22.499Z,12.55
2023-05-22T04:55:25.188Z,11.75
2023-05-22T04:58:06.709Z,10.23
2023-05-22T05:00:56.353Z,9.32
2023-05-22T05:03:45.924Z,9.38
2023-05-22T05:06:32.973Z,9.82
2023-05-22T05:09:13.542Z,9.93
2023-05-22T05:12:06.480Z,6.32
2023-05-22T05:14:53.438Z,6.45
2023-05-22T05:20:55.336Z,4.70
2023-05-22T05:23:37.250Z,5.43
2023-05-22T05:26:22.538Z,4.97
2023-05-22T05:29:10.816Z,4.38
2023-05-22T05:32:08.306Z,4.55
2023-05-22T05:35:00.859Z,4.28
2023-05-22T05:38:07.072Z,4.40
2023-05-22T05:40:54.161Z,4.00
2023-05-22T05:43:36.387Z,4.07
2023-05-22T05:46:39.274Z,3.97
2023-05-22T05:49:22.951Z,4.03
2023-05-22T05:52:04.460Z,4.03
2023-05-22T05:54:52.018Z,4.50
2023-05-22T05:57:36.250Z,4.05
2023-05-22T06:00:22.353Z,4.35
2023-05-22T06:06:23.115Z,3.83
2023-05-22T06:12:38.054Z,4.57
2023-05-22T06:15:26.356Z,4.20
2023-05-22T06:18:18.149Z,4.95
2023-05-22T06:21:01.431Z,4.45
2023-05-22T06:23:42.471Z,4.18
2023-05-22T06:26:34.904Z,4.43
2023-05-22T06:29:21.397Z,4.15
2023-05-22T06:32:16.375Z,4.30
2023-05-22T06:35:02.079Z,4.30
2023-05-22T06:37:50.663Z,4.43
2023-05-22T06:40:36.304Z,3.85
2023-05-22T06:43:31.527Z,3.60
2023-05-22T06:46:41.089Z,4.05
2023-05-22T06:49:33.267Z,4.18
2023-05-22T06:52:26.347Z,4.25
2023-05-22T06:55:10.957Z,3.90
2023-05-22T06:58:03.302Z,4.05
2023-05-22T07:00:53.801Z,3.50
2023-05-22T07:03:38.425Z,4.10
2023-05-22T07:06:57.144Z,3.40
2023-05-22T07:09:41.013Z,3.35
2023-05-22T07:12:35.291Z,3.10
2023-05-22T07:15:17.503Z,3.15
2023-05-22T07:18:06.700Z,3.30
2023-05-22T07:20:58.869Z,3.13
2023-05-22T07:23:40.266Z,3.40
2023-05-22T07:26:35.382Z,2.78
2023-05-22T07:29:26.719Z,3.70
2023-05-22T07:32:29.886Z,3.50
2023-05-22T07:35:16.244Z,3.40
2023-05-22T07:38:02.942Z,2.90
2023-05-22T07:40:49.255Z,3.40
2023-05-22T07:43:41.964Z,3.22
2023-05-22T07:46:31.387Z,3.38
2023-05-22T07:49:28.954Z,3.10
2023-05-22T07:52:16.224Z,3.13
2023-05-22T07:57:47.279Z,2.90
2023-05-22T08:00:37.226Z,2.85
2023-05-22T08:03:24.520Z,3.22
2023-05-22T08:06:18.268Z,3.15
2023-05-22T08:09:00.761Z,2.92
2023-05-22T08:11:40.259Z,3.33
2023-05-22T08:14:40.287Z,3.15
2023-05-22T08:17:33.000Z,3.00
2023-05-22T08:20:15.813Z,3.50
2023-05-22T08:23:08.080Z,2.58
2023-05-22T08:25:48.296Z,2.72
2023-05-22T08:28:36.852Z,3.38
2023-05-22T08:31:21.375Z,3.50
2023-05-22T08:34:07.400Z,3.25
2023-05-22T08:37:00.106Z,3.35
2023-05-22T08:39:44.252Z,3.13
2023-05-22T08:42:31.659Z,2.78
2023-05-22T08:45:16.470Z,3.28
2023-05-22T08:48:14.673Z,3.42
2023-05-22T08:50:57.576Z,3.15
2023-05-22T08:53:45.884Z,2.80
2023-05-22T08:56:29.478Z,3.47
2023-05-22T08:59:10.459Z,3.20
2023-05-22T09:02:06.669Z,3.05
2023-05-22T09:04:53.287Z,2.80
2023-05-22T09:07:43.753Z,2.50
2023-05-22T09:10:29.194Z,2.67
2023-05-22T09:13:36.562Z,3.20
2023-05-22T09:16:31.385Z,2.88
2023-05-22T09:19:14.274Z,3.10
2023-05-22T09:21:53.042Z,3.07
2023-05-22T09:24:44.869Z,3.05
2023-05-22T09:27:28.454Z,3.17
2023-05-22T09:30:12.045Z,3.08
2023-05-22T09:33:05.607Z,3.30
2023-05-22T09:35:46.261Z,2.90
2023-05-22T09:38:44.260Z,3.00
2023-05-22T09:41:31.179Z,3.45
2023-05-22T09:44:25.833Z,2.75
2023-05-22T09:47:13.320Z,2.80
2023-05-22T09:49:56.304Z,3.15
2023-05-22T09:52:58.036Z,2.90
2023-05-22T09:55:49.488Z,3.10
2023-05-22T09:58:53.765Z,2.80
2023-05-22T10:01:48.064Z,3.42
2023-05-22T10:04:36.944Z,2.95
2023-05-22T10:07:24.036Z,2.90
2023-05-22T10:10:17.984Z,2.60
2023-05-22T10:13:08.237Z,3.20
2023-05-22T10:15:47.308Z,3.13
2023-05-22T10:18:23.838Z,2.50
2023-05-22T10:23:53.776Z,2.85
2023-05-22T10:26:39.281Z,2.95
2023-05-22T10:29:45.240Z,2.80
2023-05-22T10:32:52.177Z,2.63
2023-05-22T10:35:49.021Z,3.17
2023-05-22T10:38:54.189Z,3.33
2023-05-22T10:41:39.161Z,2.58
2023-05-22T10:44:25.961Z,3.10
2023-05-22T10:47:13.672Z,3.08
2023-05-22T10:50:16.288Z,3.20
2023-05-22T10:53:42.814Z,3.15
2023-05-22T10:56:28.489Z,2.70
2023-05-22T10:59:21.975Z,3.00
2023-05-22T11:02:35.118Z,2.78
2023-05-22T11:05:32.476Z,2.42
2023-05-22T11:08:33.683Z,2.83
2023-05-22T11:11:16.794Z,3.10
2023-05-22T11:14:15.092Z,2.60
2023-05-22T11:17:12.087Z,2.45
2023-05-22T11:20:20.271Z,3.10
2023-05-22T11:23:06.744Z,3.00
2023-05-22T11:25:54.664Z,2.95
2023-05-22T11:28:30.635Z,2.97
2023-05-22T11:31:15.345Z,2.58
2023-05-22T11:33:59.422Z,2.38
2023-05-22T11:36:40.781Z,3.28
2023-05-22T11:39:30.433Z,2.55
2023-05-22T11:42:06.562Z,2.63
2023-05-22T11:45:04.625Z,2.40
2023-05-22T11:47:39.562Z,2.88
2023-05-22T11:50:40.873Z,2.60
2023-05-22T11:53:21.296Z,3.47
2023-05-22T11:59:00.164Z,3.15
2023-05-22T12:01:36.541Z,2.77
2023-05-22T12:04:25.990Z,2.33
2023-05-22T12:07:18.551Z,3.00
2023-05-22T12:10:11.294Z,2.65
2023-05-22T12:12:55.185Z,2.58
2023-05-22T12:15:33.162Z,2.85
2023-05-22T12:18:20.309Z,2.70
2023-05-22T12:21:16.157Z,2.63
2023-05-22T12:24:16.513Z,3.05
2023-05-22T12:27:08.120Z,2.80
2023-05-22T12:30:09.698Z,3.00
2023-05-22T12:32:54.359Z,3.03
2023-05-22T12:35:37.883Z,2.90
2023-05-22T12:38:39.519Z,2.95
2023-05-22T12:41:28.588Z,2.90
2023-05-22T12:44:16.416Z,2.47
2023-05-22T12:47:11.063Z,3.20
2023-05-22T12:50:11.538Z,2.88
2023-05-22T12:53:01.002Z,2.60
2023-05-22T12:55:46.711Z,3.15
2023-05-22T12:58:33.188Z,3.00
2023-05-22T13:01:17.193Z,3.40
2023-05-22T13:04:06.619Z,3.22
2023-05-22T13:06:45.257Z,3.00
2023-05-22T13:09:30.864Z,3.17
2023-05-22T13:12:14.645Z,3.30
2023-05-22T13:15:08.672Z,3.20
2023-05-22T13:17:57.043Z,2.90
2023-05-22T13:20:45.287Z,2.80
2023-05-22T13:23:32.852Z,3.17
2023-05-22T13:26:11.015Z,3.08
2023-05-22T13:28:48.616Z,3.25
2023-05-22T13:31:46.677Z,4.65
2023-05-22T13:34:33.640Z,3.45
2023-05-22T13:37:14.405Z,3.10
2023-05-22T13:40:03.327Z,2.80
2023-05-22T13:42:46.881Z,2.92
2023-05-22T13:45:40.320Z,2.90
2023-05-22T13:48:19.347Z,3.72
2023-05-22T13:50:56.246Z,3.40
2023-05-22T13:53:40.598Z,2.92
2023-05-22T13:56:32.690Z,2.97
2023-05-22T13:59:13.184Z,2.95
2023-05-22T14:02:10.084Z,3.17
2023-05-22T14:04:54.241Z,2.78
2023-05-22T14:07:40.252Z,3.25
2023-05-22T14:10:18.329Z,3.45
2023-05-22T14:12:59.810Z,3.50
2023-05-22T14:15:37.940Z,3.20
2023-05-22T14:18:22.278Z,2.70
2023-05-22T14:21:04.027Z,2.97
2023-05-22T14:23:37.341Z,3.65
2023-05-22T14:26:20.434Z,2.97
2023-05-22T14:29:00.612Z,3.33
2023-05-22T14:31:51.727Z,3.22
2023-05-22T14:34:33.301Z,3.10
2023-05-22T14:37:02.302Z,2.70
2023-05-22T14:39:43.537Z,2.90
2023-05-22T14:42:21.309Z,2.72
2023-05-22T14:45:26.507Z,2.90
2023-05-22T14:48:17.684Z,2.60
2023-05-22T14:51:07.434Z,2.72
2023-05-22T14:53:53.309Z,3.00
2023-05-22T14:56:36.030Z,3.17
2023-05-22T14:59:14.975Z,3.10
2023-05-22T15:01:56.752Z,2.55
2023-05-22T15:04:29.311Z,3.63
2023-05-22T15:07:08.260Z,2.42
2023-05-22T15:09:56.651Z,2.88
2023-05-22T15:12:38.522Z,3.10
2023-05-22T15:15:14.633Z,3.00
2023-05-22T15:17:50.225Z,2.67
2023-05-22T15:20:37.309Z,2.85
2023-05-22T15:23:21.216Z,2.65
2023-05-22T15:25:58.897Z,3.35
2023-05-22T15:28:45.149Z,3.35
2023-05-22T15:34:04.537Z,2.80
2023-05-22T15:36:50.847Z,3.15
2023-05-22T15:39:36.464Z,2.78
2023-05-22T15:42:15.013Z,3.58
2023-05-22T15:44:58.154Z,2.83
2023-05-22T15:47:45.387Z,3.40
2023-05-22T15:50:27.102Z,3.00
2023-05-22T15:53:13.129Z,3.25
2023-05-22T15:55:55.346Z,2.58
2023-05-22T16:01:17.974Z,3.08
2023-05-22T16:03:53.402Z,2.58
2023-05-22T16:06:30.269Z,3.20
2023-05-22T16:09:18.357Z,3.00
2023-05-22T16:12:06.249Z,3.22
2023-05-22T16:14:42.352Z,4.00
2023-05-22T16:17:25.416Z,4.82
2023-05-22T16:20:13.061Z,3.80
2023-05-22T16:22:56.203Z,3.45
2023-05-22T16:25:47.968Z,2.65
2023-05-22T16:28:40.658Z,3.00
2023-05-22T16:31:22.798Z,3.78
2023-05-22T16:34:12.197Z,3.70
2023-05-22T16:36:49.287Z,5.40
2023-05-22T16:39:30.289Z,5.13
2023-05-22T16:42:14.049Z,4.15
2023-05-22T16:45:00.523Z,6.65
2023-05-22T16:47:43.053Z,7.22
2023-05-22T16:50:41.740Z,4.18
2023-05-22T16:53:36.090Z,3.10
2023-05-22T16:56:49.198Z,3.42
2023-05-22T16:59:36.104Z,3.22
2023-05-22T17:02:24.265Z,4.25
2023-05-22T17:05:04.229Z,4.25
2023-05-22T17:07:43.257Z,5.50
2023-05-22T17:10:25.049Z,5.88
2023-05-22T17:13:21.039Z,4.97
2023-05-22T17:15:59.765Z,3.50
2023-05-22T17:18:38.186Z,4.20
2023-05-22T17:21:17.622Z,3.70
2023-05-22T17:24:02.280Z,3.50
2023-05-22T17:26:44.272Z,3.40
2023-05-22T17:29:22.456Z,3.63
2023-05-22T17:32:09.370Z,3.67
2023-05-22T17:34:57.460Z,3.80
2023-05-22T17:37:35.882Z,3.53
2023-05-22T17:40:17.245Z,3.60
2023-05-22T17:43:05.764Z,3.50
2023-05-22T17:45:50.193Z,3.67
2023-05-22T17:48:33.482Z,3.78
2023-05-22T17:51:27.102Z,3.15
2023-05-22T17:54:08.953Z,3.50
2023-05-22T17:56:42.429Z,3.50
2023-05-22T17:59:30.363Z,3.20
2023-05-22T18:02:10.073Z,3.00
2023-05-22T18:05:02.164Z,3.05
2023-05-22T18:07:41.816Z,3.38
2023-05-22T18:10:22.773Z,3.30
2023-05-22T18:12:58.272Z,3.35
2023-05-22T18:15:54.242Z,3.78
2023-05-22T18:18:35.212Z,3.55
2023-05-22T18:21:15.174Z,3.85
2023-05-22T18:23:50.645Z,3.67
2023-05-22T18:26:30.330Z,3.47
2023-05-22T18:29:13.330Z,3.60
2023-05-22T18:31:49.182Z,3.38
2023-05-22T18:34:27.434Z,4.00
2023-05-22T18:37:10.763Z,3.78
2023-05-22T18:39:49.469Z,3.88
2023-05-22T18:42:29.801Z,3.78
2023-05-22T18:45:13.701Z,3.83
2023-05-22T18:47:52.414Z,4.25
2023-05-22T18:50:39.354Z,4.47
2023-05-22T18:53:18.446Z,4.53
2023-05-22T18:55:58.489Z,4.78
2023-05-22T18:58:36.503Z,4.90
2023-05-22T19:01:30.313Z,4.03
2023-05-22T19:04:19.027Z,4.95
2023-05-22T19:07:00.554Z,4.85
2023-05-22T19:09:48.245Z,4.80
2023-05-22T19:12:35.175Z,5.07
2023-05-22T19:15:20.232Z,4.50
2023-05-22T19:18:01.344Z,5.60
2023-05-22T19:20:37.465Z,5.50
2023-05-22T19:23:19.253Z,5.00
2023-05-22T19:25:58.133Z,5.50
2023-05-22T19:28:36.093Z,5.03
2023-05-22T19:31:20.362Z,5.22
2023-05-22T19:34:02.080Z,5.55
2023-05-22T19:36:42.941Z,6.05
2023-05-22T19:39:21.276Z,5.72
2023-05-22T19:42:02.458Z,5.38
2023-05-22T19:44:40.357Z,4.90
2023-05-22T19:47:36.058Z,5.05
2023-05-22T19:50:24.864Z,6.22
2023-05-22T19:53:03.526Z,5.40
2023-05-22T19:55:46.649Z,5.47
2023-05-22T20:01:45.454Z,5.85
2023-05-22T20:04:33.299Z,5.82
2023-05-22T20:07:14.620Z,6.13
2023-05-22T20:12:37.055Z,6.10
2023-05-22T20:15:18.290Z,6.10
2023-05-22T20:17:58.118Z,6.40
2023-05-22T20:20:42.085Z,7.45
2023-05-22T20:23:25.231Z,7.47
2023-05-22T20:26:11.830Z,8.48
2023-05-22T20:29:08.611Z,7.70
2023-05-22T20:31:54.756Z,8.60
2023-05-22T20:34:45.578Z,8.65
2023-05-22T20:37:26.347Z,7.72
2023-05-22T20:40:17.691Z,7.68
2023-05-22T20:43:01.101Z,10.32
2023-05-22T20:45:31.670Z,9.48
2023-05-22T20:48:24.513Z,9.80
2023-05-22T20:51:32.886Z,8.73
2023-05-22T20:54:16.977Z,9.23
2023-05-22T20:59:40.696Z,8.45
2023-05-22T21:02:21.693Z,8.40
2023-05-22T21:05:10.038Z,9.55
2023-05-22T21:08:05.310Z,7.63
2023-05-22T21:13:53.530Z,8.98
2023-05-22T21:16:39.098Z,9.10
2023-05-22T21:19:27.492Z,8.52
2023-05-22T21:22:09.170Z,7.50
2023-05-22T21:25:01.140Z,7.05
2023-05-22T21:27:49.464Z,7.13
2023-05-22T21:30:31.921Z,7.75
2023-05-22T21:33:10.614Z,6.40
2023-05-22T21:35:51.645Z,8.65
2023-05-22T21:38:38.563Z,7.88
2023-05-22T21:41:27.716Z,7.47
2023-05-22T21:44:08.184Z,7.45
2023-05-22T21:47:05.546Z,8.93
2023-05-22T21:49:49.653Z,9.23
2023-05-22T21:52:41.761Z,9.63
2023-05-22T21:55:33.188Z,8.00
2023-05-22T21:58:24.910Z,8.43
2023-05-22T22:01:08.173Z,9.63
2023-05-22T22:03:47.648Z,9.15
2023-05-22T22:06:29.832Z,9.10
2023-05-22T22:09:10.166Z,8.82
2023-05-22T22:11:57.266Z,11.77
2023-05-22T22:14:46.426Z,13.13
2023-05-22T22:17:32.892Z,19.08
2023-05-22T22:20:42.387Z,13.23
2023-05-22T22:23:41.492Z,11.45
2023-05-22T22:28:53.139Z,10.60
2023-05-22T22:31:33.964Z,10.10
2023-05-22T22:34:15.204Z,9.63
2023-05-22T22:36:53.275Z,11.43
2023-05-22T22:39:37.557Z,10.88
2023-05-22T22:42:18.765Z,9.90
2023-05-22T22:45:03.944Z,10.90
2023-05-22T22:48:03.856Z,10.25
2023-05-22T22:50:50.529Z,9.40
2023-05-22T22:53:34.301Z,9.82
2023-05-22T22:56:23.027Z,10.13
2023-05-22T22:59:02.612Z,11.50
2023-05-22T23:01:46.826Z,9.18
2023-05-22T23:04:36.139Z,12.35
2023-05-22T23:07:11.846Z,10.80
2023-05-22T23:10:02.609Z,11.77
2023-05-22T23:12:46.592Z,11.07
2023-05-22T23:15:33.341Z,10.63
2023-05-22T23:18:14.283Z,9.90
2023-05-22T23:21:11.835Z,11.20
2023-05-22T23:23:56.342Z,13.82
2023-05-22T23:29:45.516Z,10.63
2023-05-22T23:32:29.700Z,12.20
2023-05-22T23:35:07.276Z,13.40
2023-05-22T23:37:42.730Z,13.00
2023-05-22T23:40:21.420Z,12.85
2023-05-22T23:42:55.312Z,12.98
2023-05-22T23:45:38.946Z,12.18
2023-05-22T23:48:25.881Z,14.77
2023-05-22T23:51:05.397Z,12.02
2023-05-22T23:53:58.017Z,12.32
2023-05-22T23:56:43.970Z,12.40
2023-05-22T23:59:11.399Z,12.18
